createdAt,value
2023-02-11T00:01:35.258Z,101244.78
2023-02-11T00:04:03.822Z,101248.00
2023-02-11T00:06:33.464Z,101244.19
2023-02-11T00:09:01.293Z,101234.59
2023-02-11T00:11:30.811Z,101227.72
2023-02-11T00:14:04.287Z,101215.63
2023-02-11T00:16:33.189Z,101212.72
2023-02-11T00:19:01.827Z,101216.06
2023-02-11T00:21:29.877Z,101210.28
2023-02-11T00:23:59.997Z,101208.47
2023-02-11T00:26:32.634Z,101220.59
2023-02-11T00:29:01.076Z,101218.84
2023-02-11T00:31:28.856Z,101208.13
2023-02-11T00:33:57.459Z,101193.91
2023-02-11T00:36:26.887Z,101191.72
2023-02-11T00:38:56.584Z,101193.34
2023-02-11T00:41:24.595Z,101197.56
2023-02-11T00:43:53.222Z,101190.41
2023-02-11T00:46:22.652Z,101189.72
2023-02-11T00:48:52.057Z,101181.88
2023-02-11T00:51:19.493Z,101166.28
2023-02-11T00:53:47.700Z,101157.69
2023-02-11T00:56:17.397Z,101149.09
2023-02-11T00:58:44.857Z,101150.72
2023-02-11T01:01:14.528Z,101141.28
2023-02-11T01:03:42.656Z,101129.25
2023-02-11T01:06:11.042Z,101125.81
2023-02-11T01:08:39.505Z,101113.72
2023-02-11T01:11:12.365Z,101114.81
2023-02-11T01:13:39.899Z,101129.63
2023-02-11T01:16:09.603Z,101125.44
2023-02-11T01:18:37.947Z,101115.97
2023-02-11T01:21:07.977Z,101109.25
2023-02-11T01:23:36.168Z,101108.19
2023-02-11T01:26:05.997Z,101109.97
2023-02-11T01:28:34.208Z,101099.88
2023-02-11T01:31:03.079Z,101104.59
2023-02-11T01:33:30.940Z,101113.41
2023-02-11T01:36:04.528Z,101101.78
2023-02-11T01:38:33.273Z,101091.28
2023-02-11T01:41:07.548Z,101093.19
2023-02-11T01:43:38.563Z,101092.38
2023-02-11T01:46:06.730Z,101086.91
2023-02-11T01:48:39.145Z,101081.78
2023-02-11T01:51:22.487Z,101078.00
2023-02-11T01:54:08.909Z,101070.28
2023-02-11T01:57:01.111Z,101053.22
2023-02-11T01:59:33.602Z,101053.44
2023-02-11T02:02:06.590Z,101043.13
2023-02-11T02:04:39.310Z,101038.69
2023-02-11T02:07:12.441Z,101043.75
2023-02-11T02:09:44.741Z,101047.25
2023-02-11T02:12:12.203Z,101042.81
2023-02-11T02:14:40.995Z,101035.38
2023-02-11T02:17:18.041Z,101035.88
2023-02-11T02:20:11.475Z,101032.53
2023-02-11T02:22:48.012Z,101034.94
2023-02-11T02:25:42.810Z,101037.63
2023-02-11T02:28:33.038Z,101032.53
2023-02-11T02:31:22.014Z,101020.94
2023-02-11T02:34:07.024Z,101014.91
2023-02-11T02:36:48.764Z,101005.38
2023-02-11T02:39:23.115Z,101020.06
2023-02-11T02:41:53.176Z,101002.88
2023-02-11T02:44:23.046Z,100988.13
2023-02-11T02:46:50.487Z,100991.84
2023-02-11T02:49:23.642Z,100985.75
2023-02-11T02:52:12.067Z,100985.69
2023-02-11T02:55:00.566Z,100991.03
2023-02-11T02:57:46.728Z,100979.00
2023-02-11T03:00:33.224Z,100969.41
2023-02-11T03:03:33.079Z,100968.34
2023-02-11T03:06:13.453Z,100966.72
2023-02-11T03:08:55.369Z,100949.38
2023-02-11T03:11:24.703Z,100934.38
2023-02-11T03:13:54.980Z,100936.03
2023-02-11T03:16:28.614Z,100928.28
2023-02-11T03:19:11.910Z,100928.31
2023-02-11T03:21:42.446Z,100923.13
2023-02-11T03:24:19.072Z,100929.16
2023-02-11T03:26:57.258Z,100919.63
2023-02-11T03:29:37.051Z,100920.44
2023-02-11T03:32:41.678Z,100916.28
2023-02-11T03:35:48.096Z,100924.84
2023-02-11T03:38:23.945Z,100915.50
2023-02-11T03:40:56.118Z,100921.47
2023-02-11T03:43:31.231Z,100915.22
2023-02-11T03:46:00.473Z,100919.16
2023-02-11T03:48:52.082Z,100913.00
2023-02-11T03:51:24.217Z,100909.22
2023-02-11T03:53:55.652Z,100896.06
2023-02-11T03:56:29.336Z,100899.41
2023-02-11T03:58:56.497Z,100891.50
2023-02-11T04:01:24.039Z,100882.97
2023-02-11T04:03:51.323Z,100876.16
2023-02-11T04:06:18.902Z,100887.97
2023-02-11T04:08:46.269Z,100887.78
2023-02-11T04:11:13.906Z,100894.59
2023-02-11T04:13:41.211Z,100887.38
2023-02-11T04:16:08.780Z,100887.63
2023-02-11T04:18:36.141Z,100881.41
2023-02-11T04:21:04.618Z,100884.97
2023-02-11T04:23:32.138Z,100881.59
2023-02-11T04:25:59.668Z,100900.00
2023-02-11T04:28:29.652Z,100884.97
2023-02-11T04:30:57.045Z,100877.38
2023-02-11T04:33:24.702Z,100884.59
2023-02-11T04:35:52.319Z,100879.88
2023-02-11T04:38:20.927Z,100883.91
2023-02-11T04:40:48.286Z,100878.75
2023-02-11T04:43:15.755Z,100877.75
2023-02-11T04:45:43.340Z,100869.88
2023-02-11T04:48:11.725Z,100877.78
2023-02-11T04:50:40.297Z,100882.88
2023-02-11T04:53:07.721Z,100872.44
2023-02-11T04:55:35.181Z,100875.75
2023-02-11T04:58:03.527Z,100867.81
2023-02-11T05:00:31.104Z,100866.03
2023-02-11T05:02:58.570Z,100866.63
2023-02-11T05:05:27.002Z,100860.34
2023-02-11T05:07:56.432Z,100874.19
2023-02-11T05:10:23.912Z,100868.16
2023-02-11T05:12:52.593Z,100863.03
2023-02-11T05:15:21.409Z,100854.50
2023-02-11T05:17:49.906Z,100847.78
2023-02-11T05:20:17.022Z,100857.19
2023-02-11T05:22:45.388Z,100855.53
2023-02-11T05:25:13.133Z,100847.22
2023-02-11T05:27:40.183Z,100850.06
2023-02-11T05:30:08.213Z,100851.03
2023-02-11T05:32:35.820Z,100853.56
2023-02-11T05:35:03.141Z,100851.22
2023-02-11T05:37:30.604Z,100843.81
2023-02-11T05:39:58.036Z,100847.25
2023-02-11T05:42:26.526Z,100845.91
2023-02-11T05:44:54.014Z,100846.69
2023-02-11T05:47:22.514Z,100840.66
2023-02-11T05:49:50.108Z,100833.69
2023-02-11T05:52:20.072Z,100823.19
2023-02-11T05:54:47.469Z,100822.19
2023-02-11T05:57:16.486Z,100811.59
2023-02-11T05:59:45.810Z,100810.63
2023-02-11T06:02:13.617Z,100807.97
2023-02-11T06:04:42.920Z,100814.84
2023-02-11T06:07:11.552Z,100814.09
2023-02-11T06:09:44.883Z,100811.38
2023-02-11T06:12:11.675Z,100808.63
2023-02-11T06:14:45.110Z,100805.25
2023-02-11T06:17:13.992Z,100815.16
2023-02-11T06:19:42.554Z,100818.50
2023-02-11T06:22:09.957Z,100808.91
2023-02-11T06:24:58.952Z,100810.72
2023-02-11T06:27:26.513Z,100822.53
2023-02-11T06:29:53.864Z,100825.34
2023-02-11T06:32:42.231Z,100823.97
2023-02-11T06:35:11.891Z,100825.78
2023-02-11T06:37:41.522Z,100820.03
2023-02-11T06:40:09.169Z,100825.94
2023-02-11T06:42:39.322Z,100813.88
2023-02-11T06:45:13.569Z,100807.81
2023-02-11T06:47:42.936Z,100800.09
2023-02-11T06:50:13.650Z,100793.16
2023-02-11T06:52:41.560Z,100794.97
2023-02-11T06:55:15.275Z,100796.78
2023-02-11T06:57:42.408Z,100788.22
2023-02-11T07:00:11.426Z,100781.88
2023-02-11T07:02:38.947Z,100782.91
2023-02-11T07:05:08.054Z,100782.97
2023-02-11T07:07:35.573Z,100770.28
2023-02-11T07:10:04.455Z,100766.88
2023-02-11T07:12:32.299Z,100768.53
2023-02-11T07:14:59.361Z,100759.13
2023-02-11T07:17:27.698Z,100760.91
2023-02-11T07:19:54.720Z,100759.34
2023-02-11T07:22:23.150Z,100758.44
2023-02-11T07:24:50.944Z,100749.78
2023-02-11T07:27:19.200Z,100745.38
2023-02-11T07:29:48.952Z,100762.13
2023-02-11T07:32:16.609Z,100751.03
2023-02-11T07:34:43.956Z,100756.38
2023-02-11T07:37:11.377Z,100758.16
2023-02-11T07:39:39.113Z,100765.16
2023-02-11T07:42:06.853Z,100765.91
2023-02-11T07:44:34.852Z,100770.19
2023-02-11T07:47:08.071Z,100765.06
2023-02-11T07:49:39.404Z,100770.63
2023-02-11T07:52:06.847Z,100768.00
2023-02-11T07:54:34.352Z,100773.28
2023-02-11T07:57:02.849Z,100778.63
2023-02-11T07:59:30.369Z,100768.25
2023-02-11T08:01:57.894Z,100783.19
2023-02-11T08:04:25.213Z,100765.88
2023-02-11T08:06:56.555Z,100764.34
2023-02-11T08:09:26.295Z,100754.94
2023-02-11T08:11:53.652Z,100767.25
2023-02-11T08:14:21.354Z,100768.38
2023-02-11T08:16:48.842Z,100764.13
2023-02-11T08:19:17.540Z,100762.50
2023-02-11T08:21:45.446Z,100751.34
2023-02-11T08:24:13.618Z,100740.03
2023-02-11T08:26:41.328Z,100747.06
2023-02-11T08:29:13.897Z,100748.94
2023-02-11T08:31:45.640Z,100750.69
2023-02-11T08:34:14.720Z,100757.72
2023-02-11T08:36:42.845Z,100759.44
2023-02-11T08:39:19.605Z,100756.09
2023-02-11T08:41:51.111Z,100752.69
2023-02-11T08:44:20.065Z,100767.56
2023-02-11T08:46:48.129Z,100769.31
2023-02-11T08:49:15.912Z,100770.25
2023-02-11T08:51:43.792Z,100770.25
2023-02-11T08:54:11.395Z,100779.00
2023-02-11T08:56:39.291Z,100776.34
2023-02-11T08:59:07.889Z,100784.31
2023-02-11T09:01:38.374Z,100779.09
2023-02-11T09:04:05.808Z,100791.31
2023-02-11T09:06:33.212Z,100787.00
2023-02-11T09:09:00.970Z,100796.56
2023-02-11T09:11:34.722Z,100794.84
2023-02-11T09:14:04.460Z,100785.28
2023-02-11T09:16:35.536Z,100779.19
2023-02-11T09:19:06.009Z,100767.88
2023-02-11T09:21:33.478Z,100779.28
2023-02-11T09:24:01.099Z,100775.75
2023-02-11T09:26:34.321Z,100778.41
2023-02-11T09:29:03.649Z,100777.59
2023-02-11T09:31:33.601Z,100768.91
2023-02-11T09:34:04.810Z,100768.03
2023-02-11T09:36:37.733Z,100759.34
2023-02-11T09:39:09.651Z,100752.44
2023-02-11T09:42:19.106Z,100762.91
2023-02-11T09:44:48.047Z,100752.47
2023-02-11T09:47:35.794Z,100744.59
2023-02-11T09:50:39.007Z,100740.22
2023-02-11T09:53:11.111Z,100733.22
2023-02-11T09:55:47.078Z,100734.97
2023-02-11T09:58:25.427Z,100726.25
2023-02-11T10:01:14.394Z,100714.91
2023-02-11T10:04:01.892Z,100688.72
2023-02-11T10:06:50.996Z,100685.22
2023-02-11T10:09:45.938Z,100671.25
2023-02-11T10:12:43.961Z,100659.03
2023-02-11T10:15:21.312Z,100642.41
2023-02-11T10:18:19.170Z,100652.91
2023-02-11T10:21:18.203Z,100651.16
2023-02-11T10:23:56.340Z,100648.56
2023-02-11T10:26:27.869Z,100642.44
2023-02-11T10:29:01.633Z,100645.94
2023-02-11T10:31:42.929Z,100635.41
2023-02-11T10:34:16.251Z,100642.41
2023-02-11T10:36:45.397Z,100636.31
2023-02-11T10:39:24.527Z,100631.94
2023-02-11T10:41:57.092Z,100633.69
2023-02-11T10:44:50.020Z,100624.94
2023-02-11T10:47:24.373Z,100637.19
2023-02-11T10:49:53.832Z,100618.81
2023-02-11T10:52:30.867Z,100618.81
2023-02-11T10:55:05.268Z,100605.72
2023-02-11T10:57:40.916Z,100612.69
2023-02-11T11:00:31.139Z,100610.91
2023-02-11T11:03:02.389Z,100603.94
2023-02-11T11:05:33.622Z,100617.94
2023-02-11T11:08:09.307Z,100603.06
2023-02-11T11:10:45.335Z,100603.09
2023-02-11T11:13:35.521Z,100596.97
2023-02-11T11:16:14.834Z,100614.44
2023-02-11T11:18:45.377Z,100594.34
2023-02-11T11:21:43.468Z,100596.94
2023-02-11T11:24:19.183Z,100596.03
2023-02-11T11:26:52.946Z,100592.53
2023-02-11T11:29:45.464Z,100587.28
2023-02-11T11:32:28.100Z,100600.38
2023-02-11T11:34:59.866Z,100597.78
2023-02-11T11:37:42.170Z,100604.72
2023-02-11T11:40:31.941Z,100623.09
2023-02-11T11:43:15.428Z,100619.63
2023-02-11T11:45:58.240Z,100623.13
2023-02-11T11:48:38.716Z,100635.41
2023-02-11T11:51:10.579Z,100624.91
2023-02-11T11:54:12.624Z,100624.91
2023-02-11T11:57:00.107Z,100619.66
2023-02-11T11:59:30.894Z,100606.56
2023-02-11T12:02:08.677Z,100603.06
2023-02-11T12:04:55.661Z,100603.94
2023-02-11T12:07:50.702Z,100608.34
2023-02-11T12:10:21.667Z,100600.47
2023-02-11T12:13:08.067Z,100604.81
2023-02-11T12:16:10.428Z,100613.53
2023-02-11T12:19:05.705Z,100623.19
2023-02-11T12:21:54.458Z,100603.97
2023-02-11T12:24:44.754Z,100602.22
2023-02-11T12:27:24.445Z,100605.72
2023-02-11T12:30:17.930Z,100608.34
2023-02-11T12:32:53.705Z,100611.88
2023-02-11T12:35:30.422Z,100601.41
2023-02-11T12:38:16.750Z,100583.97
2023-02-11T12:41:11.031Z,100585.72
2023-02-11T12:43:44.145Z,100558.63
2023-02-11T12:46:35.222Z,100556.00
2023-02-11T12:49:26.261Z,100554.25
2023-02-11T12:52:29.501Z,100556.88
2023-02-11T12:55:04.704Z,100549.03
2023-02-11T12:57:36.114Z,100554.25
2023-02-11T13:00:13.437Z,100545.53
2023-02-11T13:02:59.677Z,100528.97
2023-02-11T13:05:34.348Z,100520.22
2023-02-11T13:08:26.128Z,100538.53
2023-02-11T13:11:00.885Z,100529.78
2023-02-11T13:13:35.033Z,100517.56
2023-02-11T13:16:36.961Z,100498.31
2023-02-11T13:19:13.898Z,100484.34
2023-02-11T13:22:06.279Z,100478.19
2023-02-11T13:25:04.343Z,100474.69
2023-02-11T13:27:37.974Z,100481.66
2023-02-11T13:30:14.999Z,100486.94
2023-02-11T13:32:58.467Z,100497.44
2023-02-11T13:35:35.067Z,100500.91
2023-02-11T13:38:19.354Z,100521.84
2023-02-11T13:41:02.828Z,100530.66
2023-02-11T13:43:34.894Z,100510.53
2023-02-11T13:46:07.611Z,100524.50
2023-02-11T13:48:46.590Z,100514.94
2023-02-11T13:51:18.183Z,100514.88
2023-02-11T13:53:54.553Z,100515.75
2023-02-11T13:56:38.574Z,100540.22
2023-02-11T13:59:27.397Z,100534.13
2023-02-11T14:02:19.559Z,100521.84
2023-02-11T14:05:24.065Z,100534.97
2023-02-11T14:08:29.049Z,100533.22
2023-02-11T14:11:11.361Z,100529.72
2023-02-11T14:13:49.030Z,100538.47
2023-02-11T14:16:36.449Z,100534.97
2023-02-11T14:19:06.669Z,100533.25
2023-02-11T14:21:38.836Z,100527.13
2023-02-11T14:24:07.308Z,100525.41
2023-02-11T14:26:55.712Z,100519.31
2023-02-11T14:29:53.010Z,100538.53
2023-02-11T14:32:39.859Z,100532.41
2023-02-11T14:35:31.867Z,100534.19
2023-02-11T14:38:29.070Z,100522.84
2023-02-11T14:41:06.638Z,100542.91
2023-02-11T14:43:49.478Z,100539.41
2023-02-11T14:46:21.427Z,100543.78
2023-02-11T14:48:53.358Z,100563.00
2023-02-11T14:51:28.972Z,100551.66
2023-02-11T14:54:20.355Z,100555.13
2023-02-11T14:57:26.260Z,100565.63
2023-02-11T14:59:59.663Z,100566.50
2023-02-11T15:02:33.830Z,100556.06
2023-02-11T15:05:20.791Z,100572.63
2023-02-11T15:07:52.420Z,100563.03
2023-02-11T15:10:35.548Z,100576.97
2023-02-11T15:13:05.735Z,100579.59
2023-02-11T15:15:37.849Z,100583.97
2023-02-11T15:18:06.463Z,100582.19
2023-02-11T15:20:35.181Z,100586.53
2023-02-11T15:23:08.407Z,100590.03
2023-02-11T15:25:44.787Z,100595.25
2023-02-11T15:28:26.250Z,100605.63
2023-02-11T15:31:03.865Z,100604.78
2023-02-11T15:33:33.589Z,100589.06
2023-02-11T15:36:03.250Z,100615.22
2023-02-11T15:38:37.329Z,100618.63
2023-02-11T15:41:08.387Z,100612.56
2023-02-11T15:43:51.517Z,100612.50
2023-02-11T15:46:36.096Z,100628.16
2023-02-11T15:49:06.550Z,100617.66
2023-02-11T15:51:37.247Z,100611.53
2023-02-11T15:54:17.493Z,100626.31
2023-02-11T15:56:49.469Z,100607.19
2023-02-11T15:59:38.490Z,100617.66
2023-02-11T16:02:19.865Z,100631.56
2023-02-11T16:05:03.316Z,100639.44
2023-02-11T16:07:46.817Z,100635.94
2023-02-11T16:10:31.714Z,100626.38
2023-02-11T16:13:09.621Z,100630.75
2023-02-11T16:15:59.285Z,100639.50
2023-02-11T16:18:42.423Z,100639.47
2023-02-11T16:21:19.117Z,100629.06
2023-02-11T16:23:55.842Z,100628.16
2023-02-11T16:26:34.008Z,100628.16
2023-02-11T16:29:16.306Z,100630.75
2023-02-11T16:31:50.471Z,100624.69
2023-02-11T16:34:23.206Z,100622.97
2023-02-11T16:36:53.947Z,100619.47
2023-02-11T16:39:23.687Z,100621.16
2023-02-11T16:41:53.084Z,100626.44
2023-02-11T16:44:21.119Z,100633.34
2023-02-11T16:46:49.667Z,100621.16
2023-02-11T16:49:27.300Z,100631.56
2023-02-11T16:52:03.275Z,100631.59
2023-02-11T16:54:31.916Z,100636.84
2023-02-11T16:57:00.358Z,100630.69
2023-02-11T16:59:28.727Z,100636.84
2023-02-11T17:01:59.763Z,100642.94
2023-02-11T17:04:31.348Z,100643.84
2023-02-11T17:06:59.928Z,100651.66
2023-02-11T17:09:30.787Z,100657.78
2023-02-11T17:12:00.859Z,100664.75
2023-02-11T17:14:29.975Z,100665.56
2023-02-11T17:16:58.679Z,100664.72
2023-02-11T17:19:26.744Z,100668.19
2023-02-11T17:21:55.032Z,100673.44
2023-02-11T17:24:23.711Z,100680.41
2023-02-11T17:26:52.232Z,100682.09
2023-02-11T17:29:25.228Z,100678.69
2023-02-11T17:31:54.397Z,100680.44
2023-02-11T17:34:23.729Z,100676.94
2023-02-11T17:36:52.689Z,100676.94
2023-02-11T17:39:28.301Z,100683.97
2023-02-11T17:41:57.481Z,100682.19
2023-02-11T17:44:26.984Z,100687.38
2023-02-11T17:46:55.396Z,100672.59
2023-02-11T17:49:23.793Z,100671.72
2023-02-11T17:51:52.073Z,100675.22
2023-02-11T17:54:21.810Z,100678.72
2023-02-11T17:56:51.471Z,100676.94
2023-02-11T17:59:19.753Z,100684.75
2023-02-11T18:01:48.369Z,100675.19
2023-02-11T18:04:20.185Z,100671.72
2023-02-11T18:06:56.264Z,100693.50
2023-02-11T18:09:25.962Z,100681.28
2023-02-11T18:11:55.753Z,100682.13
2023-02-11T18:14:33.995Z,100690.00
2023-02-11T18:17:02.590Z,100689.19
2023-02-11T18:19:33.719Z,100687.41
2023-02-11T18:22:05.000Z,100689.16
2023-02-11T18:24:33.712Z,100696.16
2023-02-11T18:27:02.399Z,100687.44
2023-02-11T18:29:30.497Z,100698.78
2023-02-11T18:31:59.128Z,100692.69
2023-02-11T18:34:30.821Z,100691.78
2023-02-11T18:36:59.660Z,100694.41
2023-02-11T18:39:31.035Z,100698.75
2023-02-11T18:42:00.440Z,100701.41
2023-02-11T18:44:29.091Z,100697.97
2023-02-11T18:47:05.138Z,100696.19
2023-02-11T18:49:34.109Z,100703.22
2023-02-11T18:52:04.804Z,100711.06
2023-02-11T18:54:35.287Z,100707.53
2023-02-11T18:57:06.638Z,100706.66
2023-02-11T18:59:35.162Z,100710.13
2023-02-11T19:02:03.311Z,100705.78
2023-02-11T19:04:32.585Z,100702.31
2023-02-11T19:07:04.001Z,100711.88
2023-02-11T19:09:32.206Z,100713.63
2023-02-11T19:12:04.355Z,100720.63
2023-02-11T19:14:35.097Z,100716.25
2023-02-11T19:17:10.282Z,100715.44
2023-02-11T19:19:39.123Z,100713.72
2023-02-11T19:22:10.592Z,100725.06
2023-02-11T19:24:40.259Z,100728.53
2023-02-11T19:27:08.513Z,100725.94
2023-02-11T19:29:38.374Z,100719.00
2023-02-11T19:32:08.687Z,100712.88
2023-02-11T19:34:41.779Z,100727.69
2023-02-11T19:37:13.998Z,100731.19
2023-02-11T19:39:43.443Z,100733.84
2023-02-11T19:42:12.532Z,100744.28
2023-02-11T19:44:41.755Z,100741.69
2023-02-11T19:47:11.338Z,100726.00
2023-02-11T19:49:39.223Z,100729.50
2023-02-11T19:52:08.782Z,100725.16
2023-02-11T19:54:41.393Z,100732.09
2023-02-11T19:57:12.992Z,100723.41
2023-02-11T19:59:41.918Z,100724.28
2023-02-11T20:02:15.052Z,100721.63
2023-02-11T20:04:46.853Z,100733.84
2023-02-11T20:07:16.352Z,100727.78
2023-02-11T20:09:45.059Z,100731.28
2023-02-11T20:12:16.205Z,100733.03
2023-02-11T20:14:44.348Z,100729.59
2023-02-11T20:17:13.775Z,100738.38
2023-02-11T20:19:42.616Z,100752.34
2023-02-11T20:22:11.204Z,100751.44
2023-02-11T20:24:42.111Z,100747.97
2023-02-11T20:27:11.835Z,100750.59
2023-02-11T20:29:48.910Z,100750.66
2023-02-11T20:32:17.699Z,100757.69
2023-02-11T20:34:47.122Z,100752.41
2023-02-11T20:37:20.466Z,100748.09
2023-02-11T20:39:49.055Z,100757.72
2023-02-11T20:42:16.979Z,100764.69
2023-02-11T20:44:47.941Z,100765.59
2023-02-11T20:47:17.780Z,100761.19
2023-02-11T20:49:47.879Z,100766.47
2023-02-11T20:52:16.799Z,100769.06
2023-02-11T20:54:48.251Z,100764.69
2023-02-11T20:57:16.868Z,100767.34
2023-02-11T20:59:52.024Z,100776.06
2023-02-11T21:02:23.587Z,100777.81
2023-02-11T21:04:54.978Z,100785.69
2023-02-11T21:07:23.294Z,100783.03
2023-02-11T21:09:52.726Z,100803.13
2023-02-11T21:12:21.101Z,100811.03
2023-02-11T21:14:49.479Z,100804.91
2023-02-11T21:17:17.948Z,100804.00
2023-02-11T21:19:45.761Z,100810.13
2023-02-11T21:22:14.530Z,100823.22
2023-02-11T21:24:42.859Z,100825.88
2023-02-11T21:27:13.166Z,100825.00
2023-02-11T21:29:53.543Z,100829.34
2023-02-11T21:32:22.581Z,100835.47
2023-02-11T21:34:51.131Z,100837.25
2023-02-11T21:37:19.549Z,100847.72
2023-02-11T21:39:48.147Z,100858.19
2023-02-11T21:42:16.972Z,100859.94
2023-02-11T21:44:45.208Z,100856.47
2023-02-11T21:47:12.996Z,100856.44
2023-02-11T21:49:43.684Z,100868.69
2023-02-11T21:52:11.521Z,100869.53
2023-02-11T21:54:39.238Z,100871.31
2023-02-11T21:57:07.605Z,100873.06
2023-02-11T21:59:35.765Z,100859.09
2023-02-11T22:02:05.610Z,100864.31
2023-02-11T22:04:36.029Z,100855.56
2023-02-11T22:07:06.676Z,100866.03
2023-02-11T22:09:42.032Z,100867.81
2023-02-11T22:12:09.625Z,100862.53
2023-02-11T22:14:39.688Z,100869.53
2023-02-11T22:17:08.884Z,100887.00
2023-02-11T22:19:37.604Z,100879.13
2023-02-11T22:22:08.644Z,100867.78
2023-02-11T22:24:37.053Z,100883.50
2023-02-11T22:27:04.614Z,100887.88
2023-02-11T22:29:31.803Z,100903.59
2023-02-11T22:31:59.255Z,100892.22
2023-02-11T22:34:27.749Z,100907.97
2023-02-11T22:36:55.251Z,100904.47
2023-02-11T22:39:22.670Z,100904.47
2023-02-11T22:41:50.186Z,100913.19
2023-02-11T22:44:18.701Z,100918.47
2023-02-11T22:46:46.362Z,100915.81
2023-02-11T22:49:15.229Z,100916.69
2023-02-11T22:51:43.064Z,100909.69
2023-02-11T22:54:16.390Z,100906.22
2023-02-11T22:56:44.108Z,100914.94
2023-02-11T22:59:13.889Z,100907.97
2023-02-11T23:01:41.709Z,100921.94
2023-02-11T23:04:12.452Z,100930.69
2023-02-11T23:06:40.198Z,100933.31
2023-02-11T23:09:10.566Z,100934.19
2023-02-11T23:11:38.534Z,100928.94
2023-02-11T23:14:06.034Z,100936.81
2023-02-11T23:16:39.717Z,100932.41
2023-02-11T23:19:08.976Z,100940.28
2023-02-11T23:21:38.417Z,100938.53
2023-02-11T23:24:10.443Z,100932.44
2023-02-11T23:26:40.077Z,100930.66
2023-02-11T23:29:08.003Z,100937.66
2023-02-11T23:31:40.078Z,100936.81
2023-02-11T23:34:08.429Z,100935.91
2023-02-11T23:36:36.080Z,100942.03
2023-02-11T23:39:05.913Z,100935.06
2023-02-11T23:41:33.139Z,100956.00
2023-02-11T23:44:03.168Z,100955.09
2023-02-11T23:46:30.576Z,100953.38
2023-02-11T23:48:58.020Z,100945.47
2023-02-11T23:51:25.422Z,100946.38
2023-02-11T23:53:54.379Z,100951.63
2023-02-11T23:56:24.172Z,100945.47
2023-02-11T23:58:53.450Z,100965.59
